GCFV

Fuerteventura Airport

Fuerteventura Island, Spain
METAR GCFV 230300Z 01006KT 9999 FEW019 SCT028 19/16 Q1016
Observed Flight Rules
May-23 @ 03:00 UTC (25 minutes ago) Visual Flight Rules
Wind Visibility Clouds
10° at 6 knots 10,000+ meters
  • Few at 1,900' AGL
  • Scattered at 2,800' AGL
Temperatures Readings
Current 19°C / 66°F
Dewpoint 16°C / 61°F
Humidity 83%
Altimeter 30" Hg
Pressure 1016 hPa
Elevation 23
METAR GCFV 230300Z 01006KT 9999 FEW019 SCT028 19/16 Q1016
Observed Flight Rules
May-23 @ 03:00 UTC
(25 minutes ago)
VFR
Wind Visibility
10° at 6 knots 10,000+ meters
Clouds
  • Few at 1,900' AGL
  • Scattered at 2,800' AGL
Temperature Dewpoint
19°C / 66°F 16°C / 61°F
Humidity Altimeter Pressure
83% 30" Hg 1016 hPa